Time;durP1;ratioP1;P1;durP2;ratioP2;P2;SDS_P1;SDS_P2;PMS_P1;PMS_P2;Temp;Humidity;BMP_temperature;BMP_pressure;BME280_temperature;BME280_humidity;BME280_pressure;Samples;Min_cycle;Max_cycle;Signal;HPM_P1;HPM_P2
2022/09/21 00:02:12;;;;;;;25.88;13.95;;;;;;;;;;10193010;23;20122;-86
2022/09/21 00:06:16;;;;;;;21.85;12.27;;;;;;;;;;10189774;23;20021;-86
2022/09/21 00:10:20;;;;;;;20.58;11.82;;;;;;;;;;10189945;23;20052;-85
2022/09/21 00:14:25;;;;;;;24.00;12.77;;;;;;;;;;10190297;23;20021;-86
2022/09/21 00:18:31;;;;;;;22.23;11.93;;;;;;;;;;10164263;23;20021;-85
2022/09/21 01:01:16;;;;;;;29.75;14.00;;;;;;;;;;10337011;23;20070;-85
2022/09/21 01:05:19;;;;;;;33.92;14.68;;;;;;;;;;10354354;23;20066;-87
2022/09/21 01:09:22;;;;;;;31.95;16.13;;;;;;;;;;10335890;23;20012;-87
2022/09/21 01:13:31;;;;;;;30.30;16.38;;;;;;;;;;10337097;23;20021;-85
2022/09/21 01:17:43;;;;;;;35.40;15.10;;;;;;;;;;10354646;23;20522;-86
2022/09/21 01:44:15;;;;;;;43.38;17.45;;;;;;;;;;10338453;23;20030;-83
2022/09/21 01:48:18;;;;;;;48.03;17.25;;;;;;;;;;10354974;23;20078;-85
2022/09/21 01:52:24;;;;;;;57.00;20.73;;;;;;;;;;10338667;23;20023;-85
2022/09/21 01:56:33;;;;;;;47.28;17.83;;;;;;;;;;10353453;23;20024;-87
2022/09/21 02:00:39;;;;;;;48.75;20.13;;;;;;;;;;10353138;23;20352;-85
2022/09/21 02:04:41;;;;;;;41.58;20.13;;;;;;;;;;10353106;23;20024;-86
2022/09/21 02:08:44;;;;;;;52.83;21.98;;;;;;;;;;10335853;23;20031;-85
2022/09/21 02:12:53;;;;;;;58.13;22.58;;;;;;;;;;10336836;23;20023;-86
2022/09/21 02:17:08;;;;;;;58.83;22.15;;;;;;;;;;10354257;23;20382;-85
2022/09/21 02:21:22;;;;;;;42.67;19.23;;;;;;;;;;10310526;23;20031;-85
2022/09/21 02:25:39;;;;;;;41.45;19.35;;;;;;;;;;10310408;23;20020;-85
2022/09/21 02:29:50;;;;;;;36.35;17.25;;;;;;;;;;10310849;23;20043;-85
2022/09/21 02:34:03;;;;;;;37.03;16.85;;;;;;;;;;10311082;23;20016;-85
2022/09/21 02:38:11;;;;;;;29.77;14.10;;;;;;;;;;10311047;23;20466;-85
2022/09/21 02:42:19;;;;;;;30.25;14.52;;;;;;;;;;10353848;23;20401;-85
2022/09/21 02:46:27;;;;;;;27.65;15.15;;;;;;;;;;10354089;23;20020;-85
2022/09/21 02:50:39;;;;;;;33.90;17.67;;;;;;;;;;10310954;23;20106;-86
2022/09/21 02:54:48;;;;;;;31.45;16.58;;;;;;;;;;10353992;23;20020;-86
2022/09/21 02:58:58;;;;;;;36.22;17.88;;;;;;;;;;10310924;23;20103;-85
2022/09/21 03:03:15;;;;;;;38.78;18.25;;;;;;;;;;10310741;23;20030;-85
2022/09/21 03:07:22;;;;;;;33.67;17.70;;;;;;;;;;10354001;23;20047;-85
2022/09/21 03:11:26;;;;;;;40.05;19.95;;;;;;;;;;10311192;23;20027;-86
2022/09/21 03:15:31;;;;;;;36.53;18.85;;;;;;;;;;10310863;23;20462;-86
2022/09/21 03:19:34;;;;;;;40.88;20.65;;;;;;;;;;10310284;23;20095;-85
2022/09/21 03:23:40;;;;;;;42.88;20.35;;;;;;;;;;10337227;23;20020;-86
2022/09/21 03:27:46;;;;;;;42.05;20.27;;;;;;;;;;10310953;23;20027;-85
2022/09/21 03:31:49;;;;;;;35.33;16.67;;;;;;;;;;10310423;23;20492;-85
2022/09/21 03:35:55;;;;;;;41.42;19.83;;;;;;;;;;10310095;23;20020;-85
2022/09/21 03:40:01;;;;;;;46.05;21.00;;;;;;;;;;10313248;23;20026;-84
2022/09/21 03:44:06;;;;;;;40.60;19.80;;;;;;;;;;10314148;23;20336;-86
2022/09/21 03:48:13;;;;;;;39.85;18.42;;;;;;;;;;10313802;23;20451;-85
2022/09/21 03:52:16;;;;;;;43.13;21.98;;;;;;;;;;10357865;23;20407;-85
2022/09/21 03:56:19;;;;;;;47.55;20.50;;;;;;;;;;10342812;23;20020;-86
2022/09/21 04:00:27;;;;;;;42.83;20.63;;;;;;;;;;10342395;23;20027;-84
2022/09/21 04:04:30;;;;;;;54.53;24.20;;;;;;;;;;10343661;23;20020;-85
2022/09/21 04:08:35;;;;;;;55.72;25.60;;;;;;;;;;10316403;23;20095;-85
2022/09/21 04:12:42;;;;;;;48.15;25.27;;;;;;;;;;10313557;23;20016;-85
2022/09/21 04:16:46;;;;;;;55.40;28.55;;;;;;;;;;10313890;23;20089;-86
2022/09/21 04:20:50;;;;;;;45.97;23.20;;;;;;;;;;10287735;23;20103;-84
2022/09/21 04:24:53;;;;;;;50.58;24.33;;;;;;;;;;10289496;23;20017;-86
2022/09/21 04:28:58;;;;;;;45.97;23.48;;;;;;;;;;10289619;23;20028;-86
2022/09/21 04:33:07;;;;;;;46.10;27.33;;;;;;;;;;10286414;23;20377;-86
2022/09/21 04:37:13;;;;;;;51.00;25.77;;;;;;;;;;10289866;23;20028;-85
2022/09/21 04:41:19;;;;;;;43.35;23.73;;;;;;;;;;10287971;23;20047;-85
2022/09/21 04:45:27;;;;;;;45.28;23.88;;;;;;;;;;10288020;23;20070;-86
2022/09/21 04:49:32;;;;;;;47.75;23.35;;;;;;;;;;10287691;23;20356;-85
2022/09/21 04:53:39;;;;;;;37.25;21.67;;;;;;;;;;10287733;23;20016;-85
2022/09/21 04:57:43;;;;;;;29.65;15.38;;;;;;;;;;10288241;23;20330;-85
2022/09/21 05:01:46;;;;;;;43.28;22.58;;;;;;;;;;10288420;23;20437;-84
2022/09/21 05:05:50;;;;;;;40.05;20.20;;;;;;;;;;10288589;23;20017;-85
2022/09/21 05:10:06;;;;;;;41.00;22.20;;;;;;;;;;10288643;23;20024;-85
2022/09/21 05:14:19;;;;;;;38.72;21.88;;;;;;;;;;10260328;23;20218;-89
2022/09/21 05:18:25;;;;;;;39.92;21.02;;;;;;;;;;10262525;23;20461;-87
2022/09/21 05:22:28;;;;;;;45.25;23.80;;;;;;;;;;10308781;23;20453;-85
2022/09/21 05:26:30;;;;;;;53.17;24.98;;;;;;;;;;10316808;23;20024;-85
2022/09/21 05:30:33;;;;;;;46.30;27.67;;;;;;;;;;10314971;23;20063;-86
2022/09/21 05:34:49;;;;;;;60.17;29.63;;;;;;;;;;10317925;23;20043;-85
2022/09/21 05:38:52;;;;;;;50.90;26.20;;;;;;;;;;10331011;23;20068;-86
2022/09/21 05:42:57;;;;;;;57.03;27.08;;;;;;;;;;10314287;23;20021;-88
2022/09/21 05:47:08;;;;;;;47.47;25.42;;;;;;;;;;10288522;23;20044;-85
2022/09/21 05:51:29;;;;;;;52.38;24.70;;;;;;;;;;10292654;23;20027;-87
2022/09/21 05:55:45;;;;;;;45.97;22.95;;;;;;;;;;10268216;23;20020;-87
2022/09/21 06:00:01;;;;;;;45.45;23.27;;;;;;;;;;10263641;23;20463;-86
2022/09/21 06:04:05;;;;;;;63.30;31.75;;;;;;;;;;10304005;23;20020;-88
2022/09/21 06:08:11;;;;;;;67.85;32.63;;;;;;;;;;10287804;23;20023;-85
2022/09/21 06:12:16;;;;;;;54.13;25.02;;;;;;;;;;10262174;23;20022;-85
2022/09/21 06:16:19;;;;;;;39.67;22.67;;;;;;;;;;10261117;23;20043;-85
2022/09/21 06:20:23;;;;;;;53.47;23.83;;;;;;;;;;10262142;23;20479;-88
2022/09/21 06:24:30;;;;;;;37.97;20.60;;;;;;;;;;10286524;23;20459;-85
2022/09/21 06:28:34;;;;;;;38.38;21.88;;;;;;;;;;10251912;23;20021;-86
2022/09/21 06:32:39;;;;;;;40.10;23.02;;;;;;;;;;10336544;23;20055;-85
2022/09/21 06:36:44;;;;;;;36.17;19.65;;;;;;;;;;10352753;23;20095;-85
2022/09/21 06:40:48;;;;;;;29.00;16.40;;;;;;;;;;10312045;23;20038;-85
2022/09/21 06:44:54;;;;;;;28.67;16.83;;;;;;;;;;10335855;23;20054;-85
2022/09/21 06:48:59;;;;;;;27.27;16.52;;;;;;;;;;10309189;23;20024;-84
2022/09/21 06:53:05;;;;;;;23.25;13.88;;;;;;;;;;10310462;23;20020;-84
2022/09/21 06:57:11;;;;;;;32.35;17.17;;;;;;;;;;10310669;23;20016;-85
2022/09/21 07:01:17;;;;;;;23.83;15.10;;;;;;;;;;10310604;23;20016;-87
2022/09/21 07:05:22;;;;;;;22.80;14.30;;;;;;;;;;10310213;23;20086;-85
2022/09/21 07:09:28;;;;;;;26.20;13.75;;;;;;;;;;10310471;23;20040;-83
2022/09/21 07:13:36;;;;;;;25.98;14.10;;;;;;;;;;10312365;23;20016;-83
2022/09/21 07:17:43;;;;;;;25.77;15.10;;;;;;;;;;10307730;23;20047;-85
2022/09/21 07:21:48;;;;;;;22.05;13.60;;;;;;;;;;10307407;23;20024;-86
2022/09/21 07:25:54;;;;;;;21.98;14.65;;;;;;;;;;10307549;23;20439;-85
2022/09/21 07:30:00;;;;;;;20.60;13.43;;;;;;;;;;10307514;23;20443;-87
2022/09/21 07:34:06;;;;;;;20.35;12.88;;;;;;;;;;10307861;23;20024;-85
2022/09/21 07:38:11;;;;;;;22.63;13.75;;;;;;;;;;10307158;23;20023;-87
2022/09/21 07:42:16;;;;;;;23.38;15.40;;;;;;;;;;10307047;23;20146;-87
2022/09/21 07:46:28;;;;;;;17.77;12.60;;;;;;;;;;10333957;23;20023;-85
2022/09/21 07:50:33;;;;;;;18.75;12.10;;;;;;;;;;10307629;23;20023;-88
2022/09/21 07:54:39;;;;;;;21.17;12.38;;;;;;;;;;10333399;23;20028;-89
2022/09/21 08:24:23;;;;;;;;;;;;;;;;;;10221190;23;20110;-88
2022/09/21 08:34:26;;;;;;;10.90;7.70;;;;;;;;;;10093419;23;20512;-86
2022/09/21 08:58:00;;;;;;;11.98;7.10;;;;;;;;;;10283743;23;20386;-87
2022/09/21 09:02:24;;;;;;;15.35;10.38;;;;;;;;;;10299432;23;20564;-87
2022/09/21 09:06:36;;;;;;;16.60;12.18;;;;;;;;;;10298697;23;20020;-88
2022/09/21 09:10:42;;;;;;;18.27;13.20;;;;;;;;;;10299036;23;20031;-86
2022/09/21 09:36:13;;;;;;;8.00;4.65;;;;;;;;;;10175356;23;20157;-86
2022/09/21 09:40:25;;;;;;;6.80;4.45;;;;;;;;;;10281186;23;20515;-87
2022/09/21 09:44:44;;;;;;;6.97;4.78;;;;;;;;;;10282426;23;20043;-86
2022/09/21 09:53:47;;;;;;;9.43;5.70;;;;;;;;;;10079462;23;20369;-86
2022/09/21 09:57:53;;;;;;;13.07;9.30;;;;;;;;;;10235412;23;20028;-85
2022/09/21 10:02:02;;;;;;;15.07;9.35;;;;;;;;;;10280412;23;20336;-85
2022/09/21 10:06:05;;;;;;;18.95;11.85;;;;;;;;;;10297938;23;20066;-86
2022/09/21 10:10:39;;;;;;;8.75;5.43;;;;;;;;;;10281520;23;20036;-88
2022/09/21 10:14:53;;;;;;;5.05;3.47;;;;;;;;;;10268621;23;20016;-86
2022/09/21 10:19:00;;;;;;;4.95;2.90;;;;;;;;;;10279072;23;20039;-88
2022/09/21 10:23:04;;;;;;;8.35;3.20;;;;;;;;;;10280176;23;20017;-88
2022/09/21 10:27:13;;;;;;;6.63;2.95;;;;;;;;;;10279502;23;20020;-86
2022/09/21 10:31:25;;;;;;;5.88;3.38;;;;;;;;;;10279567;23;20024;-85
2022/09/21 10:35:31;;;;;;;5.20;3.67;;;;;;;;;;10280403;23;20016;-86
2022/09/21 10:39:37;;;;;;;7.55;3.20;;;;;;;;;;10279160;23;20107;-88
2022/09/21 10:43:49;;;;;;;8.48;4.20;;;;;;;;;;10279583;23;20024;-87
2022/09/21 11:17:16;;;;;;;5.50;3.28;;;;;;;;;;10225482;23;20134;-87
2022/09/21 11:21:28;;;;;;;5.28;2.65;;;;;;;;;;10326667;23;20046;-86
2022/09/21 11:25:43;;;;;;;3.90;2.25;;;;;;;;;;10303742;23;20023;-86
2022/09/21 11:29:57;;;;;;;3.28;2.28;;;;;;;;;;10304089;23;20039;-89
2022/09/21 11:34:29;;;;;;;6.50;3.05;;;;;;;;;;10304054;23;20031;-87
2022/09/21 11:38:42;;;;;;;5.25;2.72;;;;;;;;;;10298278;23;20107;-89
2022/09/21 11:43:08;;;;;;;11.07;5.40;;;;;;;;;;10303965;23;20024;-85
2022/09/21 11:47:24;;;;;;;5.15;3.80;;;;;;;;;;10300254;23;20028;-88
2022/09/21 11:51:44;;;;;;;6.93;3.88;;;;;;;;;;10344029;23;20020;-87
2022/09/21 11:55:59;;;;;;;4.68;2.40;;;;;;;;;;10304118;23;20467;-87
2022/09/21 12:15:35;;;;;;;27.85;14.95;;;;;;;;;;10128428;23;20033;-90
2022/09/21 12:35:28;;;;;;;5.70;3.83;;;;;;;;;;10266382;23;20034;-87
2022/09/21 12:39:42;;;;;;;11.20;5.85;;;;;;;;;;10333357;23;20054;-89
2022/09/21 12:43:51;;;;;;;7.55;4.30;;;;;;;;;;10332137;23;20023;-87
2022/09/21 13:04:33;;;;;;;4.35;2.65;;;;;;;;;;10279661;23;20543;-87
2022/09/21 13:08:41;;;;;;;8.35;4.90;;;;;;;;;;10324987;23;20416;-87
2022/09/21 13:12:51;;;;;;;7.03;3.90;;;;;;;;;;10348646;23;20081;-89
2022/09/21 13:16:59;;;;;;;2.40;1.90;;;;;;;;;;10348353;23;20452;-85
2022/09/21 13:21:03;;;;;;;6.00;2.47;;;;;;;;;;10347956;23;20016;-87
2022/09/21 13:25:19;;;;;;;3.88;2.50;;;;;;;;;;10329344;23;20077;-87
2022/09/21 13:38:32;;;;;;;31.63;18.05;;;;;;;;;;10381026;22;20046;-86
2022/09/21 13:42:47;;;;;;;9.13;4.80;;;;;;;;;;10382586;22;20027;-87
2022/09/21 13:46:58;;;;;;;5.60;2.90;;;;;;;;;;10356137;22;20027;-87
2022/09/21 13:56:32;;;;;;;3.97;1.70;;;;;;;;;;10326836;22;20394;-88
2022/09/21 14:00:39;;;;;;;3.05;1.92;;;;;;;;;;10349398;23;20070;-87
2022/09/21 14:04:51;;;;;;;5.20;2.22;;;;;;;;;;10333650;23;20036;-86
2022/09/21 14:09:01;;;;;;;3.28;1.92;;;;;;;;;;10348409;22;20356;-90
2022/09/21 14:13:23;;;;;;;4.38;2.38;;;;;;;;;;10330370;23;20081;-86
2022/09/21 14:17:44;;;;;;;6.90;3.80;;;;;;;;;;10331654;23;20082;-88
2022/09/21 14:22:42;;;;;;;8.13;4.22;;;;;;;;;;10331430;23;20016;-86
2022/09/21 14:26:56;;;;;;;8.52;5.15;;;;;;;;;;10322934;22;20031;-86
2022/09/21 14:31:03;;;;;;;11.75;4.97;;;;;;;;;;10329510;23;20031;-84
2022/09/21 14:35:18;;;;;;;7.32;3.75;;;;;;;;;;10329794;23;20356;-88
2022/09/21 14:39:30;;;;;;;6.90;4.20;;;;;;;;;;10327495;23;20350;-86
2022/09/21 14:43:40;;;;;;;7.88;4.00;;;;;;;;;;10329809;23;20357;-87
2022/09/21 14:48:01;;;;;;;10.15;6.65;;;;;;;;;;10347087;23;20162;-88
2022/09/21 14:52:13;;;;;;;9.32;5.75;;;;;;;;;;10344504;23;20415;-87
2022/09/21 14:56:30;;;;;;;16.60;8.93;;;;;;;;;;10353296;22;20456;-87
2022/09/21 15:00:42;;;;;;;12.82;7.88;;;;;;;;;;10395985;22;20394;-86
2022/09/21 15:05:01;;;;;;;14.50;6.50;;;;;;;;;;10378185;22;20023;-88
2022/09/21 15:13:59;;;;;;;14.85;7.32;;;;;;;;;;10352922;22;20383;-87
2022/09/21 15:18:19;;;;;;;12.57;6.43;;;;;;;;;;10379333;22;20574;-87
2022/09/21 15:22:26;;;;;;;10.98;6.25;;;;;;;;;;10353593;22;20452;-87
2022/09/21 15:26:36;;;;;;;12.23;7.28;;;;;;;;;;10352256;22;20035;-87
2022/09/21 15:30:46;;;;;;;20.45;10.27;;;;;;;;;;10353376;22;20024;-86
2022/09/21 15:35:01;;;;;;;16.30;8.95;;;;;;;;;;10357107;22;20448;-86
2022/09/21 15:39:05;;;;;;;12.93;5.72;;;;;;;;;;10401429;22;20069;-87
2022/09/21 15:43:20;;;;;;;18.65;10.45;;;;;;;;;;10384048;22;20011;-89
2022/09/21 15:47:27;;;;;;;12.02;7.03;;;;;;;;;;10357224;22;20089;-88
2022/09/21 15:51:38;;;;;;;10.30;5.38;;;;;;;;;;10357248;22;20027;-89
2022/09/21 15:55:47;;;;;;;10.20;5.40;;;;;;;;;;10357163;22;20719;-87
2022/09/21 15:59:52;;;;;;;21.02;9.50;;;;;;;;;;10356106;22;20034;-87
2022/09/21 16:04:04;;;;;;;19.15;9.00;;;;;;;;;;10381235;22;20023;-87
2022/09/21 16:09:03;;;;;;;13.88;6.43;;;;;;;;;;10383611;22;20026;-88
2022/09/21 16:17:39;;;;;;;8.25;3.90;;;;;;;;;;10383616;22;20422;-87
2022/09/21 16:21:42;;;;;;;6.57;3.30;;;;;;;;;;10398631;22;20015;-87
2022/09/21 16:25:56;;;;;;;5.95;2.83;;;;;;;;;;10353244;22;20333;-89
2022/09/21 16:30:03;;;;;;;5.75;3.15;;;;;;;;;;10356555;22;20039;-88
2022/09/21 16:34:34;;;;;;;6.57;3.05;;;;;;;;;;10356289;22;20027;-87
2022/09/21 16:38:39;;;;;;;6.95;3.70;;;;;;;;;;10356891;22;20023;-88
2022/09/21 16:42:44;;;;;;;10.57;4.82;;;;;;;;;;10356231;22;20352;-87
2022/09/21 16:46:54;;;;;;;12.85;5.70;;;;;;;;;;10356084;22;20028;-87
2022/09/21 16:51:00;;;;;;;16.02;6.63;;;;;;;;;;10356434;22;20486;-87
2022/09/21 16:55:03;;;;;;;22.75;9.95;;;;;;;;;;10355851;22;20024;-87
2022/09/21 16:59:19;;;;;;;21.60;10.10;;;;;;;;;;10383244;22;20024;-88
2022/09/21 17:03:27;;;;;;;22.77;11.43;;;;;;;;;;10355176;22;20051;-87
2022/09/21 17:07:52;;;;;;;36.38;16.92;;;;;;;;;;10372337;22;20028;-89
2022/09/21 17:11:58;;;;;;;36.70;17.48;;;;;;;;;;10398402;22;20020;-88
2022/09/21 17:16:01;;;;;;;24.92;14.85;;;;;;;;;;10399217;22;20012;-88
2022/09/21 17:20:17;;;;;;;24.95;14.13;;;;;;;;;;10356067;22;20586;-88
2022/09/21 17:24:22;;;;;;;21.35;12.68;;;;;;;;;;10400091;22;20093;-88
2022/09/21 17:28:28;;;;;;;26.17;13.88;;;;;;;;;;10382451;22;20098;-87
2022/09/21 17:32:34;;;;;;;23.77;14.25;;;;;;;;;;10399374;22;20020;-88
2022/09/21 17:36:40;;;;;;;26.63;14.98;;;;;;;;;;10358522;22;20046;-87
2022/09/21 17:40:45;;;;;;;32.95;16.02;;;;;;;;;;10360663;22;20042;-86
2022/09/21 17:45:12;;;;;;;28.63;14.95;;;;;;;;;;10359176;22;20031;-87
2022/09/21 17:49:18;;;;;;;30.50;16.63;;;;;;;;;;10359603;22;20031;-87
2022/09/21 17:53:35;;;;;;;38.13;18.13;;;;;;;;;;10385201;22;20023;-87
2022/09/21 17:57:55;;;;;;;26.70;14.27;;;;;;;;;;10403755;22;20472;-88
2022/09/21 18:02:01;;;;;;;36.83;17.60;;;;;;;;;;10404477;22;20026;-87
2022/09/21 18:06:05;;;;;;;39.10;17.45;;;;;;;;;;10360366;22;20082;-85
2022/09/21 18:20:50;;;;;;;33.63;17.58;;;;;;;;;;10384568;22;20019;-88
2022/09/21 18:35:02;;;;;;;28.00;14.50;;;;;;;;;;10378989;22;20030;-87
2022/09/21 18:39:19;;;;;;;23.88;14.43;;;;;;;;;;10406110;22;20075;-86
2022/09/21 18:43:32;;;;;;;21.52;12.90;;;;;;;;;;10408068;22;20020;-86
2022/09/21 18:47:45;;;;;;;22.27;12.48;;;;;;;;;;10429678;22;20019;-87
2022/09/21 18:51:57;;;;;;;28.02;13.75;;;;;;;;;;10434300;22;20015;-86
2022/09/21 18:56:01;;;;;;;26.83;13.88;;;;;;;;;;10421494;22;20020;-85
2022/09/21 19:00:05;;;;;;;25.80;13.82;;;;;;;;;;10418134;22;20020;-87
2022/09/21 19:04:10;;;;;;;30.80;15.90;;;;;;;;;;10419216;22;20038;-86
2022/09/21 19:08:25;;;;;;;27.02;14.70;;;;;;;;;;10418055;22;20030;-87
2022/09/21 19:12:56;;;;;;;30.05;15.82;;;;;;;;;;10381178;22;20029;-87
2022/09/21 19:17:15;;;;;;;34.38;15.57;;;;;;;;;;10409486;22;20015;-87
2022/09/21 19:21:31;;;;;;;29.02;15.90;;;;;;;;;;10365615;22;20023;-87
2022/09/21 19:25:46;;;;;;;22.88;11.95;;;;;;;;;;10364552;22;20024;-87
2022/09/21 19:29:59;;;;;;;23.73;12.45;;;;;;;;;;10363789;22;20478;-86
2022/09/21 19:34:13;;;;;;;21.60;11.68;;;;;;;;;;10363807;22;20043;-88
2022/09/21 19:38:19;;;;;;;22.33;11.70;;;;;;;;;;10363891;22;20027;-87
2022/09/21 19:42:49;;;;;;;24.60;12.50;;;;;;;;;;10363379;22;20027;-87
2022/09/21 19:47:05;;;;;;;21.70;12.15;;;;;;;;;;10390620;22;20069;-86
2022/09/21 19:51:14;;;;;;;25.92;11.98;;;;;;;;;;10360701;22;20103;-87
2022/09/21 19:59:44;;;;;;;25.67;14.23;;;;;;;;;;10406714;22;20015;-87
2022/09/21 20:03:49;;;;;;;24.92;13.05;;;;;;;;;;10387365;22;20077;-87
2022/09/21 20:07:59;;;;;;;23.33;13.95;;;;;;;;;;10387387;22;20348;-88
2022/09/21 20:12:12;;;;;;;26.60;12.70;;;;;;;;;;10389444;22;20145;-87
2022/09/21 20:16:35;;;;;;;25.07;14.70;;;;;;;;;;10407156;22;20032;-86
2022/09/21 20:20:40;;;;;;;21.80;14.00;;;;;;;;;;10362116;22;20020;-86
2022/09/21 20:24:51;;;;;;;22.85;13.18;;;;;;;;;;10390234;22;20444;-87
2022/09/21 20:28:57;;;;;;;25.75;14.45;;;;;;;;;;10392745;22;20027;-87
2022/09/21 20:33:07;;;;;;;23.58;13.95;;;;;;;;;;10389588;22;20129;-87
2022/09/21 20:37:12;;;;;;;22.23;13.00;;;;;;;;;;10406763;22;20455;-87
2022/09/21 20:41:17;;;;;;;23.23;12.82;;;;;;;;;;10362273;22;20023;-87
2022/09/21 20:45:21;;;;;;;24.13;12.80;;;;;;;;;;10406322;22;20023;-88
2022/09/21 20:49:27;;;;;;;20.58;11.98;;;;;;;;;;10361532;22;20112;-86
2022/09/21 20:53:31;;;;;;;18.52;12.05;;;;;;;;;;10362434;22;20023;-87
2022/09/21 20:57:36;;;;;;;20.60;11.85;;;;;;;;;;10389229;22;20153;-87
2022/09/21 21:01:39;;;;;;;20.45;10.40;;;;;;;;;;10362276;22;20452;-86
2022/09/21 21:05:45;;;;;;;19.00;10.38;;;;;;;;;;10362155;22;20081;-86
2022/09/21 21:09:48;;;;;;;18.25;10.43;;;;;;;;;;10362254;22;20023;-86
2022/09/21 21:13:51;;;;;;;18.52;10.32;;;;;;;;;;10362270;22;20023;-86
2022/09/21 21:17:54;;;;;;;21.58;11.05;;;;;;;;;;10362063;22;20106;-88
2022/09/21 21:22:00;;;;;;;20.08;10.63;;;;;;;;;;10362153;22;20031;-87
2022/09/21 21:26:07;;;;;;;20.45;10.88;;;;;;;;;;10404127;22;20037;-87
2022/09/21 21:30:14;;;;;;;19.42;10.65;;;;;;;;;;10361791;22;20103;-86
2022/09/21 21:34:17;;;;;;;20.77;10.52;;;;;;;;;;10362244;22;20038;-87
2022/09/21 21:38:23;;;;;;;21.98;10.68;;;;;;;;;;10361590;22;20126;-87
2022/09/21 21:42:29;;;;;;;22.13;12.35;;;;;;;;;;10361763;22;20044;-87
2022/09/21 21:46:32;;;;;;;23.67;13.43;;;;;;;;;;10361715;22;20023;-87
2022/09/21 21:50:35;;;;;;;25.20;14.02;;;;;;;;;;10361520;22;20102;-86
2022/09/21 21:54:41;;;;;;;22.02;13.77;;;;;;;;;;10387826;22;20024;-87
2022/09/21 21:58:45;;;;;;;22.02;12.48;;;;;;;;;;10361505;22;20094;-86
2022/09/21 22:02:50;;;;;;;25.30;12.80;;;;;;;;;;10361542;22;20347;-87
2022/09/21 22:06:55;;;;;;;24.30;13.02;;;;;;;;;;10361645;22;20095;-87
2022/09/21 22:11:04;;;;;;;22.90;13.02;;;;;;;;;;10361675;22;20119;-87
2022/09/21 22:15:11;;;;;;;24.80;11.38;;;;;;;;;;10361466;22;20035;-86
2022/09/21 22:19:14;;;;;;;21.20;11.90;;;;;;;;;;10361498;22;20034;-86
2022/09/21 22:23:16;;;;;;;15.32;10.43;;;;;;;;;;10361468;22;20448;-86
2022/09/21 22:27:24;;;;;;;22.45;10.90;;;;;;;;;;10388025;22;20348;-87
2022/09/21 22:31:30;;;;;;;19.60;10.68;;;;;;;;;;10360961;22;20355;-86
2022/09/21 22:35:33;;;;;;;20.13;10.43;;;;;;;;;;10361035;22;20030;-87
2022/09/21 22:39:39;;;;;;;16.33;9.88;;;;;;;;;;10360808;22;20509;-86
2022/09/21 22:43:46;;;;;;;16.33;8.40;;;;;;;;;;10360861;22;20107;-86
2022/09/21 22:47:52;;;;;;;12.75;7.53;;;;;;;;;;10360440;22;20023;-86
2022/09/21 22:51:54;;;;;;;14.65;8.25;;;;;;;;;;10361005;22;20121;-87
2022/09/21 22:56:03;;;;;;;11.35;7.30;;;;;;;;;;10360894;22;20022;-88
2022/09/21 23:11:31;;;;;;;13.32;7.70;;;;;;;;;;10387435;22;20473;-87
2022/09/21 23:15:35;;;;;;;13.23;7.90;;;;;;;;;;10387651;22;20016;-87
2022/09/21 23:19:38;;;;;;;13.55;7.85;;;;;;;;;;10360669;22;20554;-86
2022/09/21 23:23:42;;;;;;;12.43;7.53;;;;;;;;;;10359931;22;20070;-87
2022/09/21 23:27:46;;;;;;;14.10;7.38;;;;;;;;;;10360478;22;20020;-87
2022/09/21 23:31:51;;;;;;;14.57;7.47;;;;;;;;;;10387603;22;20394;-88
2022/09/21 23:35:56;;;;;;;15.45;7.50;;;;;;;;;;10360643;22;20364;-88
2022/09/21 23:39:59;;;;;;;14.38;7.40;;;;;;;;;;10387770;22;20016;-87
2022/09/21 23:44:07;;;;;;;12.70;7.22;;;;;;;;;;10360623;22;20030;-87
2022/09/21 23:48:12;;;;;;;12.13;6.65;;;;;;;;;;10360585;22;20543;-87
2022/09/21 23:52:17;;;;;;;11.63;6.80;;;;;;;;;;10360602;22;20549;-86
2022/09/21 23:56:25;;;;;;;13.75;7.18;;;;;;;;;;10406379;22;20019;-87
